This is the latest recevied weather packets stored in our database for station/object AD6NH. If no packets are shown the sender has not sent any weather packets the latest 1 day(s).
| Time | Temp. | Humidity | Pressure | Rain* | Wind** | Luminosity | Snow |
|---|---|---|---|---|---|---|---|
| 1836274608 | 23.33° C | 71% | 1012.9 hPa | - | 0.89 m/s, 294° | - | - |
| 1836274457 | 23.33° C | 71% | 1012.9 hPa | - | 0.89 m/s, 294° | - | - |
| 1836274008 | 23.33° C | 71% | 1012.9 hPa | - | 0.45 m/s, 273° | - | - |
| 1778038022 | 16.11° C | 68% | 1016.1 hPa | - | 1.79 m/s, 197° | - | - |
| 1778037422 | 16.11° C | 68% | 1016 hPa | - | 0.45 m/s, 182° | - | - |
| 1778036822 | 16.11° C | 67% | 1016 hPa | - | 0.45 m/s, 198° | - | - |
| 1778036222 | 16.67° C | 63% | 1015.5 hPa | - | 1.79 m/s, 226° | - | - |
| 1778035622 | 16.67° C | 62% | 1015.5 hPa | - | 2.24 m/s, 228° | - | - |
| 1778035022 | 17.22° C | 60% | 1015.4 hPa | - | 1.34 m/s, 257° | - | - |
| 1778034422 | 17.22° C | 58% | 1015.2 hPa | - | 1.34 m/s, 197° | - | - |
| 1778033822 | 17.78° C | 58% | 1015.3 hPa | - | 1.79 m/s, 224° | - | - |
| 1778033222 | 17.78° C | 59% | 1015.1 hPa | - | 0.89 m/s, 169° | - | - |
| 1778032622 | 18.89° C | 55% | 1014.9 hPa | - | 3.13 m/s, 238° | - | - |
| 1778032022 | 18.89° C | 54% | 1014.9 hPa | - | 2.68 m/s, 228° | - | - |
| 1778031422 | 19.44° C | 54% | 1014.8 hPa | - | 1.34 m/s, 249° | - | - |
| 1778030822 | 19.44° C | 54% | 1014.7 hPa | - | 2.68 m/s, 188° | - | - |
| 1778030222 | 21.11° C | 38% | 1014.7 hPa | - | 1.34 m/s, 224° | - | - |
| 1778029622 | 21.11° C | 38% | 1014.8 hPa | - | 1.79 m/s, 220° | - | - |
| 1778029022 | 21.11° C | 38% | 1014.7 hPa | - | 1.79 m/s, 205° | - | - |
| 1778028422 | 21.11° C | 38% | 1014.6 hPa | - | 1.79 m/s, 175° | - | - |
| 1778027822 | 21.11° C | 38% | 1014.6 hPa | - | 2.68 m/s, 178° | - | - |
| 1778027222 | 21.11° C | 38% | 1014.6 hPa | - | 2.24 m/s, 233° | - | - |
| 1778026622 | 21.11° C | 38% | 1014.6 hPa | - | 3.13 m/s, 233° | - | - |
| 1778026022 | 21.11° C | 38% | 1014.6 hPa | - | 1.34 m/s, 247° | - | - |
| 1778025422 | 21.11° C | 38% | 1014.6 hPa | - | 3.13 m/s, 243° | - | - |
* Rain since midnight (hover to see other rain measurements)
** Current wind speed in m/s (hover to see current wind gust speed)